| Back to River Map | <<< Previous Forecast Point | | | Next Forecast Point >>> | Printer Version | Graph Version |  |
|
TRUCKEE RIVER - WADSWORTH (WADN2)
| Latitude: 39.63º N | Longitude: 119.28º W | Elevation: 4070 Feet | | Forecast Type: Official Location |
| Location: Washoe County in Nevada | Bulletin Group: Eastern Sierra | River Group: Eastern Sierra |
| Issuance Time: | May 09 2026 at 7:26 AM PDT | Next Issuance: | May 10 2026 at 9:00 AM PDT
| |
| Action/Monitor: 13.0 Feet | Minor Flood: 15.0 Feet | Moderate Flood: 17.0 Feet | Major Flood: 19.0 Feet |
# Tabular Observed and Forecast Hydrograph Information
#
# Location: Truckee River - Wadsworth (WADN2)
#
# File Generation Time: 05/09/2026 at 07:26 AM PDT
# Data Interval: 1 Hour
#
# Most Recent Date & Time of Maximum Observed: 05/08/2026 at 06:00 PM PDT
# Maximum Observed Stage: 6.22 Feet
# Maximum Observed Flow: 908 cfs
#
# Earliest Date & Time of Maximum Forecast: 05/09/2026 at 08:00 PM PDT
# Maximum Forecast Stage: 6.02 Feet
# Maximum Forecast Flow: 801 cfs
#
# OBSERVED
#
# Date & Time (Local) Stage (Feet) Flow (cfs) Trend Observed Status
# ---------------------------------------------------------------------------------
05/04/2026 07 AM PDT 6.10 843 Normal
05/04/2026 08 AM PDT 6.10 843 0 Normal
05/04/2026 09 AM PDT 6.13 859 + Normal
05/04/2026 10 AM PDT 6.10 843 - Normal
05/04/2026 11 AM PDT 6.07 827 - Normal
05/04/2026 12 PM PDT 6.04 811 - Normal
05/04/2026 01 PM PDT 6.04 811 0 Normal
05/04/2026 02 PM PDT 6.04 811 0 Normal
05/04/2026 03 PM PDT 6.06 822 + Normal
05/04/2026 04 PM PDT 6.11 848 + Normal
05/04/2026 05 PM PDT 6.11 848 0 Normal
05/04/2026 06 PM PDT 6.08 832 - Normal
05/04/2026 07 PM PDT 6.04 811 - Normal
05/04/2026 08 PM PDT 6.02 801 - Normal
05/04/2026 09 PM PDT 6.01 796 - Normal
05/04/2026 10 PM PDT 5.98 780 - Normal
05/04/2026 11 PM PDT 5.96 770 - Normal
05/05/2026 12 AM PDT 5.97 775 + Normal
05/05/2026 01 AM PDT 5.97 775 0 Normal
05/05/2026 02 AM PDT 5.96 770 - Normal
05/05/2026 03 AM PDT 5.96 770 0 Normal
05/05/2026 04 AM PDT 6.04 811 + Normal
05/05/2026 05 AM PDT 6.10 843 + Normal
05/05/2026 06 AM PDT 6.13 859 + Normal
05/05/2026 07 AM PDT 6.10 843 - Normal
05/05/2026 08 AM PDT 6.07 827 - Normal
05/05/2026 09 AM PDT 6.06 822 - Normal
05/05/2026 10 AM PDT 6.06 822 0 Normal
05/05/2026 11 AM PDT 6.05 817 - Normal
05/05/2026 12 PM PDT 6.07 827 + Normal
05/05/2026 01 PM PDT 6.09 838 + Normal
05/05/2026 02 PM PDT 6.12 854 + Normal
05/05/2026 03 PM PDT 6.13 859 + Normal
05/05/2026 04 PM PDT 6.08 832 - Normal
05/05/2026 05 PM PDT 6.11 848 + Normal
05/05/2026 06 PM PDT 6.08 832 - Normal
05/05/2026 07 PM PDT 6.12 854 + Normal
05/05/2026 08 PM PDT 6.11 848 - Normal
05/05/2026 09 PM PDT 6.08 832 - Normal
05/05/2026 10 PM PDT 6.07 827 - Normal
05/05/2026 11 PM PDT 6.06 822 - Normal
05/06/2026 12 AM PDT 6.01 796 - Normal
05/06/2026 01 AM PDT 5.96 770 - Normal
05/06/2026 02 AM PDT 5.95 765 - Normal
05/06/2026 03 AM PDT 5.94 760 - Normal
05/06/2026 04 AM PDT 5.92 750 - Normal
05/06/2026 05 AM PDT 5.91 745 - Normal
05/06/2026 06 AM PDT 5.90 740 - Normal
05/06/2026 07 AM PDT 5.89 735 - Normal
05/06/2026 08 AM PDT 5.88 730 - Normal
05/06/2026 09 AM PDT 5.88 730 0 Normal
05/06/2026 10 AM PDT 5.80 690 - Normal
05/06/2026 11 AM PDT 5.75 666 - Normal
05/06/2026 12 PM PDT 5.69 638 - Normal
05/06/2026 01 PM PDT 5.76 671 + Normal
05/06/2026 02 PM PDT 5.74 662 - Normal
05/06/2026 03 PM PDT 5.77 676 + Normal
05/06/2026 04 PM PDT 5.80 690 + Normal
05/06/2026 05 PM PDT 5.85 715 + Normal
05/06/2026 06 PM PDT 5.86 720 + Normal
05/06/2026 07 PM PDT 5.88 730 + Normal
05/06/2026 08 PM PDT 5.91 745 + Normal
05/06/2026 09 PM PDT 5.88 730 - Normal
05/06/2026 10 PM PDT 5.83 705 - Normal
05/06/2026 11 PM PDT 5.85 715 + Normal
05/07/2026 12 AM PDT 5.79 686 - Normal
05/07/2026 01 AM PDT 5.81 695 + Normal
05/07/2026 02 AM PDT 5.79 686 - Normal
05/07/2026 03 AM PDT 5.80 690 + Normal
05/07/2026 04 AM PDT 5.83 705 + Normal
05/07/2026 05 AM PDT 5.81 695 - Normal
05/07/2026 06 AM PDT 5.85 715 + Normal
05/07/2026 07 AM PDT 5.84 710 - Normal
05/07/2026 08 AM PDT 5.82 700 - Normal
05/07/2026 09 AM PDT 5.83 705 + Normal
05/07/2026 10 AM PDT 5.87 725 + Normal
05/07/2026 11 AM PDT 5.89 735 + Normal
05/07/2026 12 PM PDT 5.94 760 + Normal
05/07/2026 01 PM PDT 5.97 775 + Normal
05/07/2026 02 PM PDT 6.02 801 + Normal
05/07/2026 03 PM PDT 6.02 801 0 Normal
05/07/2026 04 PM PDT 6.07 827 + Normal
05/07/2026 05 PM PDT 6.08 832 + Normal
05/07/2026 06 PM PDT 6.09 838 + Normal
05/07/2026 07 PM PDT 6.09 838 0 Normal
05/07/2026 08 PM PDT 6.06 822 - Normal
05/07/2026 09 PM PDT 6.03 806 - Normal
05/07/2026 10 PM PDT 6.03 806 0 Normal
05/07/2026 11 PM PDT 6.02 801 - Normal
05/08/2026 12 AM PDT 6.04 811 + Normal
05/08/2026 01 AM PDT 6.08 832 + Normal
05/08/2026 02 AM PDT 6.11 848 + Normal
05/08/2026 03 AM PDT 6.07 827 - Normal
05/08/2026 04 AM PDT 6.09 838 + Normal
05/08/2026 05 AM PDT 6.06 822 - Normal
05/08/2026 06 AM PDT 6.07 827 + Normal
05/08/2026 07 AM PDT 6.05 817 - Normal
05/08/2026 08 AM PDT 6.07 827 + Normal
05/08/2026 09 AM PDT 6.04 811 - Normal
05/08/2026 10 AM PDT 6.05 817 + Normal
05/08/2026 11 AM PDT 6.06 822 + Normal
05/08/2026 12 PM PDT 6.09 838 + Normal
05/08/2026 01 PM PDT 6.13 859 + Normal
05/08/2026 02 PM PDT 6.14 864 + Normal
05/08/2026 03 PM PDT 6.19 891 + Normal
05/08/2026 04 PM PDT 6.17 881 - Normal
05/08/2026 05 PM PDT 6.19 891 + Normal
05/08/2026 06 PM PDT 6.22 908 + Normal
05/08/2026 07 PM PDT 6.20 897 - Normal
05/08/2026 08 PM PDT 6.19 891 - Normal
05/08/2026 09 PM PDT 6.16 875 - Normal
05/08/2026 10 PM PDT 6.13 859 - Normal
05/08/2026 11 PM PDT 6.12 854 - Normal
05/09/2026 12 AM PDT 6.09 838 - Normal
05/09/2026 01 AM PDT 6.12 854 + Normal
05/09/2026 02 AM PDT 6.08 832 - Normal
05/09/2026 03 AM PDT 6.09 838 + Normal
05/09/2026 04 AM PDT 6.07 827 - Normal
05/09/2026 05 AM PDT 6.07 827 0 Normal
05/09/2026 06 AM PDT 6.06 822 - Normal
05/09/2026 07 AM PDT 6.04 811 - Normal
#
# FORECAST
#
# Date & Time (Local) Stage (Feet) Flow (cfs) Trend Forecast Status
# ---------------------------------------------------------------------------------
05/09/2026 08 AM PDT 6.00 791 Normal
05/09/2026 09 AM PDT 5.97 775 - Normal
05/09/2026 10 AM PDT 5.95 765 - Normal
05/09/2026 11 AM PDT 5.92 750 - Normal
05/09/2026 12 PM PDT 5.92 750 0 Normal
05/09/2026 01 PM PDT 5.92 750 0 Normal
05/09/2026 02 PM PDT 5.93 755 + Normal
05/09/2026 03 PM PDT 5.95 765 + Normal
05/09/2026 04 PM PDT 5.97 775 + Normal
05/09/2026 05 PM PDT 5.99 786 + Normal
05/09/2026 06 PM PDT 6.00 791 + Normal
05/09/2026 07 PM PDT 6.01 796 + Normal
05/09/2026 08 PM PDT 6.02 801 + Normal
05/09/2026 09 PM PDT 6.02 801 0 Normal
05/09/2026 10 PM PDT 6.01 796 - Normal
05/09/2026 11 PM PDT 6.01 796 0 Normal
05/10/2026 12 AM PDT 6.00 791 - Normal
05/10/2026 01 AM PDT 6.00 791 0 Normal
05/10/2026 02 AM PDT 5.99 786 - Normal
05/10/2026 03 AM PDT 5.99 786 0 Normal
05/10/2026 04 AM PDT 5.98 780 - Normal
05/10/2026 05 AM PDT 5.97 775 - Normal
05/10/2026 06 AM PDT 5.97 775 0 Normal
05/10/2026 07 AM PDT 5.96 770 - Normal
05/10/2026 08 AM PDT 5.96 770 0 Normal
05/10/2026 09 AM PDT 5.96 770 0 Normal
05/10/2026 10 AM PDT 5.95 765 - Normal
05/10/2026 11 AM PDT 5.95 765 0 Normal
05/10/2026 12 PM PDT 5.95 765 0 Normal
05/10/2026 01 PM PDT 5.95 765 0 Normal
05/10/2026 02 PM PDT 5.95 765 0 Normal
05/10/2026 03 PM PDT 5.95 765 0 Normal
05/10/2026 04 PM PDT 5.96 770 + Normal
05/10/2026 05 PM PDT 5.96 770 0 Normal
05/10/2026 06 PM PDT 5.96 770 0 Normal
05/10/2026 07 PM PDT 5.97 775 + Normal
05/10/2026 08 PM PDT 5.97 775 0 Normal
05/10/2026 09 PM PDT 5.98 780 + Normal
05/10/2026 10 PM PDT 5.98 780 0 Normal
05/10/2026 11 PM PDT 5.98 780 0 Normal
05/11/2026 12 AM PDT 5.98 780 0 Normal
05/11/2026 01 AM PDT 5.98 780 0 Normal
05/11/2026 02 AM PDT 5.97 775 - Normal
05/11/2026 03 AM PDT 5.97 775 0 Normal
05/11/2026 04 AM PDT 5.96 770 - Normal
05/11/2026 05 AM PDT 5.96 770 0 Normal
05/11/2026 06 AM PDT 5.95 765 - Normal
05/11/2026 07 AM PDT 5.94 760 - Normal
05/11/2026 08 AM PDT 5.94 760 0 Normal
05/11/2026 09 AM PDT 5.93 755 - Normal
05/11/2026 10 AM PDT 5.93 755 0 Normal
05/11/2026 11 AM PDT 5.93 755 0 Normal
05/11/2026 12 PM PDT 5.92 750 - Normal
05/11/2026 01 PM PDT 5.92 750 0 Normal
05/11/2026 02 PM PDT 5.92 750 0 Normal
05/11/2026 03 PM PDT 5.93 755 + Normal
05/11/2026 04 PM PDT 5.93 755 0 Normal
05/11/2026 05 PM PDT 5.94 760 + Normal
05/11/2026 06 PM PDT 5.94 760 0 Normal
05/11/2026 07 PM PDT 5.95 765 + Normal
05/11/2026 08 PM PDT 5.95 765 0 Normal
05/11/2026 09 PM PDT 5.96 770 + Normal
05/11/2026 10 PM PDT 5.96 770 0 Normal
05/11/2026 11 PM PDT 5.96 770 0 Normal
05/12/2026 12 AM PDT 5.96 770 0 Normal
05/12/2026 01 AM PDT 5.96 770 0 Normal
05/12/2026 02 AM PDT 5.95 765 - Normal
05/12/2026 03 AM PDT 5.95 765 0 Normal
05/12/2026 04 AM PDT 5.94 760 - Normal
05/12/2026 05 AM PDT 5.93 755 - Normal
05/12/2026 06 AM PDT 5.93 755 0 Normal
05/12/2026 07 AM PDT 5.92 750 - Normal
05/12/2026 08 AM PDT 5.92 750 0 Normal
05/12/2026 09 AM PDT 5.91 745 - Normal
05/12/2026 10 AM PDT 5.91 745 0 Normal
05/12/2026 11 AM PDT 5.90 740 - Normal
05/12/2026 12 PM PDT 5.90 740 0 Normal
05/12/2026 01 PM PDT 5.90 740 0 Normal
05/12/2026 02 PM PDT 5.90 740 0 Normal
05/12/2026 03 PM PDT 5.90 740 0 Normal
05/12/2026 04 PM PDT 5.90 740 0 Normal
05/12/2026 05 PM PDT 5.91 745 + Normal
05/12/2026 06 PM PDT 5.91 745 0 Normal
05/12/2026 07 PM PDT 5.92 750 + Normal
05/12/2026 08 PM PDT 5.92 750 0 Normal
05/12/2026 09 PM PDT 5.92 750 0 Normal
05/12/2026 10 PM PDT 5.93 755 + Normal
05/12/2026 11 PM PDT 5.93 755 0 Normal
05/13/2026 12 AM PDT 5.93 755 0 Normal
05/13/2026 01 AM PDT 5.92 750 - Normal
05/13/2026 02 AM PDT 5.92 750 0 Normal
05/13/2026 03 AM PDT 5.92 750 0 Normal
05/13/2026 04 AM PDT 5.91 745 - Normal
05/13/2026 05 AM PDT 5.91 745 0 Normal
05/13/2026 06 AM PDT 5.90 740 - Normal
05/13/2026 07 AM PDT 5.89 735 - Normal
05/13/2026 08 AM PDT 5.89 735 0 Normal
05/13/2026 09 AM PDT 5.88 730 - Normal
05/13/2026 10 AM PDT 5.88 730 0 Normal
05/13/2026 11 AM PDT 5.88 730 0 Normal
05/13/2026 12 PM PDT 5.88 730 0 Normal
05/13/2026 01 PM PDT 5.87 725 - Normal
05/13/2026 02 PM PDT 5.87 725 0 Normal
05/13/2026 03 PM PDT 5.87 725 0 Normal
05/13/2026 04 PM PDT 5.88 730 + Normal
05/13/2026 05 PM PDT 5.88 730 0 Normal
05/13/2026 06 PM PDT 5.88 730 0 Normal
05/13/2026 07 PM PDT 5.89 735 + Normal
05/13/2026 08 PM PDT 5.89 735 0 Normal
05/13/2026 09 PM PDT 5.89 735 0 Normal
05/13/2026 10 PM PDT 5.89 735 0 Normal
05/13/2026 11 PM PDT 5.89 735 0 Normal
05/14/2026 12 AM PDT 5.89 735 0 Normal
05/14/2026 01 AM PDT 5.89 735 0 Normal
05/14/2026 02 AM PDT 5.89 735 0 Normal
05/14/2026 03 AM PDT 5.88 730 - Normal
05/14/2026 04 AM PDT 5.88 730 0 Normal
05/14/2026 05 AM PDT 5.87 725 - Normal
#
# NOTE 1: Stages are rounded to the nearest hundredth (.01) of a foot.
# NOTE 2: Flows are rounded to the nearest (1) cfs.
# NOTE 3: Trends are determined using hourly change in unrounded stage and flow.
# NOTE 4: Maximum Values are determined using unrounded stage and flow.
|